createdAt,value
2023-02-24T00:02:06.142Z,38.60
2023-02-24T00:04:39.838Z,36.20
2023-02-24T00:07:10.680Z,35.80
2023-02-24T00:09:39.486Z,43.30
2023-02-24T00:12:10.677Z,39.00
2023-02-24T00:14:41.210Z,44.10
2023-02-24T00:17:10.815Z,40.50
2023-02-24T00:19:39.011Z,35.70
2023-02-24T00:22:08.690Z,34.90
2023-02-24T00:24:36.875Z,41.70
2023-02-24T00:27:12.226Z,37.30
2023-02-24T00:29:42.179Z,32.10
2023-02-24T00:32:13.608Z,35.90
2023-02-24T00:34:43.425Z,37.00
2023-02-24T00:37:12.368Z,31.10
2023-02-24T00:39:41.806Z,34.30
2023-02-24T00:42:12.050Z,37.30
2023-02-24T00:44:49.778Z,33.50
2023-02-24T00:47:18.011Z,34.30
2023-02-24T00:49:46.569Z,39.80
2023-02-24T00:52:20.055Z,33.80
2023-02-24T00:54:49.872Z,39.40
2023-02-24T00:57:20.579Z,41.10
2023-02-24T00:59:51.038Z,48.10
2023-02-24T01:02:20.426Z,46.70
2023-02-24T01:04:50.008Z,52.90
2023-02-24T01:07:18.336Z,42.70
2023-02-24T01:09:49.963Z,48.30
2023-02-24T01:12:36.368Z,45.10
2023-02-24T01:15:06.975Z,50.40
2023-02-24T01:17:37.427Z,41.30
2023-02-24T01:20:17.020Z,41.20
2023-02-24T01:22:53.446Z,42.60
2023-02-24T01:25:22.562Z,46.30
2023-02-24T01:27:50.867Z,45.80
2023-02-24T01:30:18.993Z,38.10
2023-02-24T01:32:47.581Z,41.60
2023-02-24T01:35:16.603Z,42.10
2023-02-24T01:37:45.907Z,41.40
2023-02-24T01:40:21.181Z,41.70
2023-02-24T01:42:50.294Z,44.90
2023-02-24T01:45:22.025Z,42.50
2023-02-24T01:47:52.060Z,41.70
2023-02-24T01:50:23.479Z,44.40
2023-02-24T01:52:58.448Z,44.30
2023-02-24T01:55:32.424Z,39.50
2023-02-24T01:58:05.134Z,39.50
2023-02-24T02:00:33.416Z,45.90
2023-02-24T02:03:08.346Z,43.00
2023-02-24T02:05:39.164Z,38.30
2023-02-24T02:08:09.332Z,46.20
2023-02-24T02:10:40.944Z,57.80
2023-02-24T02:13:09.128Z,73.50
2023-02-24T02:15:47.952Z,63.40
2023-02-24T02:19:02.615Z,54.80
2023-02-24T02:22:17.607Z,44.60
2023-02-24T02:24:51.262Z,31.00
2023-02-24T02:27:21.174Z,35.60
2023-02-24T02:30:31.376Z,48.40
2023-02-24T02:33:38.532Z,43.50
2023-02-24T02:36:17.678Z,48.20
2023-02-24T02:38:57.551Z,48.80
2023-02-24T02:41:45.144Z,40.30
2023-02-24T02:44:22.643Z,41.60
2023-02-24T02:47:01.665Z,39.70
2023-02-24T02:49:36.455Z,38.00
2023-02-24T02:52:17.927Z,62.70
2023-02-24T02:54:50.725Z,51.30
2023-02-24T02:57:29.640Z,48.90
2023-02-24T03:00:10.170Z,36.00
2023-02-24T03:02:45.141Z,42.80
2023-02-24T03:05:20.401Z,47.50
2023-02-24T03:07:56.201Z,46.80
2023-02-24T03:10:32.888Z,52.30
2023-02-24T03:13:13.373Z,48.50
2023-02-24T03:15:44.895Z,48.10
2023-02-24T03:18:29.224Z,45.90
2023-02-24T03:21:29.107Z,44.90
2023-02-24T03:23:57.809Z,43.90
2023-02-24T03:27:01.505Z,40.50
2023-02-24T03:29:50.101Z,44.00
2023-02-24T03:32:20.476Z,43.00
2023-02-24T03:34:57.023Z,42.20
2023-02-24T03:37:28.182Z,41.10
2023-02-24T03:39:59.494Z,35.00
2023-02-24T03:42:32.775Z,34.30
2023-02-24T03:45:02.155Z,42.10
2023-02-24T03:47:32.874Z,44.40
2023-02-24T03:50:01.448Z,41.00
2023-02-24T03:53:08.994Z,36.90
2023-02-24T03:55:43.947Z,39.40
2023-02-24T03:58:38.771Z,40.60
2023-02-24T04:01:19.635Z,37.20
2023-02-24T04:04:03.696Z,36.70
2023-02-24T04:06:49.945Z,35.80
2023-02-24T04:09:36.380Z,42.10
2023-02-24T04:12:20.109Z,45.70
2023-02-24T04:15:16.351Z,41.00
2023-02-24T04:17:49.025Z,40.30
2023-02-24T04:20:21.029Z,37.70
2023-02-24T04:23:02.894Z,44.20
2023-02-24T04:25:32.616Z,42.70
2023-02-24T04:28:03.264Z,40.30
2023-02-24T04:30:36.411Z,39.90
2023-02-24T04:33:04.933Z,39.40
2023-02-24T04:35:34.219Z,34.20
2023-02-24T04:38:02.269Z,39.90
2023-02-24T04:40:31.268Z,36.10
2023-02-24T04:42:59.641Z,42.30
2023-02-24T04:45:30.164Z,39.10
2023-02-24T04:48:03.379Z,36.20
2023-02-24T04:50:35.465Z,35.40
2023-02-24T04:53:10.873Z,40.30
2023-02-24T04:55:43.748Z,36.20
2023-02-24T04:58:14.166Z,38.20
2023-02-24T05:00:42.452Z,36.60
2023-02-24T05:03:12.484Z,33.20
2023-02-24T05:05:43.044Z,43.00
2023-02-24T05:08:11.481Z,34.10
2023-02-24T05:10:44.795Z,37.10
2023-02-24T05:13:16.393Z,31.00
2023-02-24T05:15:46.113Z,42.80
2023-02-24T05:18:20.409Z,41.40
2023-02-24T05:21:12.528Z,44.80
2023-02-24T05:23:45.794Z,50.00
2023-02-24T05:26:17.281Z,41.30
2023-02-24T05:28:49.549Z,43.80
2023-02-24T05:31:24.322Z,37.50
2023-02-24T05:33:55.001Z,35.80
2023-02-24T05:36:24.473Z,36.10
2023-02-24T05:38:58.011Z,43.60
2023-02-24T05:41:35.993Z,34.60
2023-02-24T05:44:10.955Z,35.00
2023-02-24T05:46:44.717Z,33.40
2023-02-24T05:49:20.646Z,33.90
2023-02-24T05:51:56.393Z,33.10
2023-02-24T05:54:34.002Z,35.10
2023-02-24T05:57:05.428Z,32.00
2023-02-24T05:59:34.018Z,28.40
2023-02-24T06:02:09.415Z,33.70
2023-02-24T06:04:40.392Z,36.40
2023-02-24T06:07:19.244Z,32.30
2023-02-24T06:09:53.927Z,39.00
2023-02-24T06:12:25.605Z,32.70
2023-02-24T06:14:54.301Z,42.30
2023-02-24T06:17:23.103Z,37.20
2023-02-24T06:19:52.948Z,34.00
2023-02-24T06:22:23.528Z,42.70
2023-02-24T06:24:54.195Z,38.60
2023-02-24T06:27:25.037Z,39.70
2023-02-24T06:29:55.046Z,41.40
2023-02-24T06:32:26.106Z,37.80
2023-02-24T06:34:54.749Z,33.40
2023-02-24T06:37:23.435Z,35.90
2023-02-24T06:39:51.751Z,33.40
2023-02-24T06:42:20.079Z,40.40
2023-02-24T06:44:49.114Z,36.40
2023-02-24T06:47:18.364Z,34.80
2023-02-24T06:49:48.265Z,35.20
2023-02-24T06:52:19.178Z,36.20
2023-02-24T06:54:48.690Z,33.90
2023-02-24T06:57:17.802Z,41.60
2023-02-24T06:59:46.362Z,35.30
2023-02-24T07:02:14.788Z,37.90
2023-02-24T07:04:45.577Z,34.30
2023-02-24T07:07:17.711Z,42.60
2023-02-24T07:09:45.977Z,41.80
2023-02-24T07:12:15.768Z,41.80
2023-02-24T07:14:44.121Z,43.50
2023-02-24T07:17:14.800Z,37.00
2023-02-24T07:19:44.303Z,38.90
2023-02-24T07:22:14.846Z,40.70
2023-02-24T07:24:46.258Z,33.00
2023-02-24T07:27:23.336Z,36.80
2023-02-24T07:29:53.522Z,38.90
2023-02-24T07:32:23.121Z,33.00
2023-02-24T07:34:51.294Z,34.40
2023-02-24T07:37:20.784Z,30.20
2023-02-24T07:39:49.137Z,29.60
2023-02-24T07:42:17.183Z,25.20
2023-02-24T07:44:46.973Z,22.80
2023-02-24T07:47:16.332Z,22.80
2023-02-24T07:49:45.540Z,21.80
2023-02-24T07:52:13.984Z,21.00
2023-02-24T07:54:42.167Z,20.70
2023-02-24T07:57:14.339Z,17.60
2023-02-24T07:59:45.394Z,18.90
2023-02-24T08:02:13.969Z,15.60
2023-02-24T08:04:50.402Z,15.30
2023-02-24T08:07:25.028Z,19.60
2023-02-24T08:10:13.807Z,15.70
2023-02-24T08:12:43.062Z,20.80
2023-02-24T08:15:22.226Z,18.10
2023-02-24T08:17:57.412Z,20.70
2023-02-24T08:20:36.487Z,17.30
2023-02-24T08:23:08.823Z,16.10
2023-02-24T08:25:36.961Z,19.70
2023-02-24T08:28:11.659Z,20.50
2023-02-24T08:30:45.898Z,18.80
2023-02-24T08:33:20.356Z,20.00
2023-02-24T08:36:02.401Z,22.20
2023-02-24T08:38:42.636Z,25.60
2023-02-24T08:41:21.126Z,23.40
2023-02-24T08:43:50.037Z,30.40
2023-02-24T08:46:26.519Z,27.00
2023-02-24T08:48:58.068Z,29.40
2023-02-24T08:51:35.167Z,26.50
2023-02-24T08:54:15.413Z,27.60
2023-02-24T08:56:49.263Z,23.20
2023-02-24T08:59:51.511Z,23.80
2023-02-24T09:02:24.893Z,23.40
2023-02-24T09:04:58.963Z,28.20
2023-02-24T09:07:35.737Z,32.20
2023-02-24T09:10:18.012Z,29.10
2023-02-24T09:12:46.861Z,27.60
2023-02-24T09:15:15.818Z,34.50
2023-02-24T09:17:45.272Z,31.00
2023-02-24T09:20:27.562Z,28.60
2023-02-24T09:25:49.880Z,32.80
2023-02-24T09:28:27.460Z,27.80
2023-02-24T09:30:58.851Z,31.10
2023-02-24T09:33:41.875Z,28.40
2023-02-24T09:36:13.484Z,33.70
2023-02-24T09:39:01.391Z,30.20
2023-02-24T09:41:33.429Z,29.70
2023-02-24T09:44:18.674Z,30.80
2023-02-24T09:46:59.951Z,31.70
2023-02-24T09:49:40.265Z,28.00
2023-02-24T09:52:19.152Z,34.40
2023-02-24T09:55:11.392Z,35.80
2023-02-24T09:58:08.671Z,41.50
2023-02-24T10:00:44.370Z,40.30
2023-02-24T10:03:41.642Z,40.50
2023-02-24T10:06:20.979Z,47.00
2023-02-24T10:09:13.059Z,47.70
2023-02-24T10:11:56.137Z,44.60
2023-02-24T10:14:44.643Z,40.90
2023-02-24T10:17:39.488Z,43.70
2023-02-24T10:20:14.013Z,40.30
2023-02-24T10:22:58.063Z,51.40
2023-02-24T10:25:53.861Z,47.70
2023-02-24T10:29:02.916Z,46.80
2023-02-24T10:31:39.686Z,52.00
2023-02-24T10:34:20.255Z,52.20
2023-02-24T10:36:50.688Z,49.20
2023-02-24T10:39:25.987Z,51.60
2023-02-24T10:41:58.107Z,49.10
2023-02-24T10:44:36.547Z,49.40
2023-02-24T10:47:14.353Z,49.60
2023-02-24T10:49:59.487Z,49.60
2023-02-24T10:53:11.478Z,50.30
2023-02-24T10:55:47.559Z,45.20
2023-02-24T10:58:28.054Z,46.40
2023-02-24T11:01:13.335Z,42.70
2023-02-24T11:04:01.558Z,45.10
2023-02-24T11:06:35.089Z,42.50
2023-02-24T11:09:23.356Z,46.20
2023-02-24T11:12:09.841Z,52.50
2023-02-24T11:15:09.038Z,42.30
2023-02-24T11:17:45.339Z,42.50
2023-02-24T11:20:17.457Z,52.80
2023-02-24T11:22:49.266Z,44.40
2023-02-24T11:25:36.968Z,42.10
2023-02-24T11:28:07.337Z,46.70
2023-02-24T11:30:52.586Z,45.90
2023-02-24T11:33:52.445Z,44.70
2023-02-24T11:36:54.527Z,43.90
2023-02-24T11:39:35.621Z,46.00
2023-02-24T11:42:12.673Z,43.40
2023-02-24T11:44:48.253Z,45.60
2023-02-24T11:47:22.474Z,40.70
2023-02-24T11:49:55.386Z,45.40
2023-02-24T11:52:33.993Z,40.10
2023-02-24T11:55:05.614Z,41.10
2023-02-24T11:57:43.454Z,39.80
2023-02-24T12:00:28.024Z,40.10
2023-02-24T12:03:13.235Z,37.60
2023-02-24T12:05:49.074Z,38.90
2023-02-24T12:08:31.243Z,31.30
2023-02-24T12:11:21.711Z,27.70
2023-02-24T12:14:06.975Z,28.00
2023-02-24T12:16:46.043Z,28.80
2023-02-24T12:19:30.246Z,29.00
2023-02-24T12:22:06.246Z,28.10
2023-02-24T12:24:36.602Z,27.70
2023-02-24T12:27:23.041Z,27.90
2023-02-24T12:30:23.193Z,28.20
2023-02-24T12:33:08.325Z,25.40
2023-02-24T12:35:52.534Z,25.90
2023-02-24T12:38:33.036Z,24.30
2023-02-24T12:41:29.874Z,22.40
2023-02-24T12:44:01.642Z,22.20
2023-02-24T12:46:37.806Z,24.00
2023-02-24T12:49:35.989Z,23.50
2023-02-24T12:52:22.622Z,22.70
2023-02-24T12:55:11.472Z,20.20
2023-02-24T12:57:57.941Z,20.90
2023-02-24T13:00:31.635Z,18.20
2023-02-24T13:03:03.801Z,19.60
2023-02-24T13:05:41.713Z,19.90
2023-02-24T13:08:12.790Z,21.00
2023-02-24T13:10:47.268Z,18.10
2023-02-24T13:13:19.536Z,21.20
2023-02-24T13:16:00.324Z,19.80
2023-02-24T13:18:32.626Z,20.10
2023-02-24T13:23:34.556Z,21.30
2023-02-24T13:26:04.149Z,19.90
2023-02-24T13:28:36.480Z,19.80
2023-02-24T13:31:06.468Z,20.20
2023-02-24T13:33:44.271Z,19.20
2023-02-24T13:36:17.215Z,20.10
2023-02-24T13:39:07.843Z,20.40
2023-02-24T13:41:40.886Z,21.70
2023-02-24T13:44:28.272Z,24.10
2023-02-24T13:47:17.508Z,20.70
2023-02-24T13:49:59.011Z,21.10
2023-02-24T13:52:36.491Z,22.60
2023-02-24T13:55:22.735Z,24.70
2023-02-24T13:58:15.292Z,25.30
2023-02-24T14:03:24.971Z,21.30
2023-02-24T14:05:53.831Z,20.20
2023-02-24T14:08:29.789Z,25.30
2023-02-24T14:11:00.545Z,19.70
2023-02-24T14:13:34.231Z,21.90
2023-02-24T14:16:08.417Z,20.70
2023-02-24T14:18:37.681Z,25.10
2023-02-24T14:21:06.128Z,21.60
2023-02-24T14:23:35.420Z,22.10
2023-02-24T14:26:12.255Z,24.00
2023-02-24T14:28:42.132Z,22.60
2023-02-24T14:31:16.122Z,23.10
2023-02-24T14:33:45.533Z,25.40
2023-02-24T14:36:24.925Z,24.60
2023-02-24T14:39:04.432Z,24.70
2023-02-24T14:41:32.615Z,23.50
2023-02-24T14:44:14.870Z,25.30
2023-02-24T14:46:54.198Z,22.50
2023-02-24T14:49:26.820Z,22.40
2023-02-24T14:52:03.482Z,22.70
2023-02-24T14:54:34.326Z,22.40
2023-02-24T14:57:03.294Z,22.40
2023-02-24T14:59:40.012Z,21.60
2023-02-24T15:02:19.654Z,22.10
2023-02-24T15:04:48.515Z,22.00
2023-02-24T15:07:21.483Z,24.00
2023-02-24T15:09:52.059Z,23.40
2023-02-24T15:12:32.544Z,25.80
2023-02-24T15:15:21.555Z,22.30
2023-02-24T15:18:04.485Z,26.40
2023-02-24T15:20:37.442Z,25.80
2023-02-24T15:23:06.045Z,24.90
2023-02-24T15:25:46.317Z,26.90
2023-02-24T15:28:32.587Z,29.80
2023-02-24T15:31:16.415Z,25.70
2023-02-24T15:33:54.818Z,27.40
2023-02-24T15:36:25.791Z,25.20
2023-02-24T15:39:06.973Z,25.40
2023-02-24T15:41:45.987Z,27.00
2023-02-24T15:44:30.941Z,23.70
2023-02-24T15:47:12.358Z,25.20
2023-02-24T15:49:40.403Z,26.20
2023-02-24T15:52:10.092Z,27.00
2023-02-24T15:54:39.615Z,25.30
2023-02-24T15:57:12.544Z,25.70
2023-02-24T15:59:41.397Z,30.30
2023-02-24T16:02:29.882Z,29.20
2023-02-24T16:04:57.918Z,26.30
2023-02-24T16:07:35.200Z,29.00
2023-02-24T16:10:04.509Z,26.80
2023-02-24T16:12:43.067Z,23.90
2023-02-24T16:15:19.389Z,27.60
2023-02-24T16:17:47.557Z,28.20
2023-02-24T16:20:27.553Z,24.80
2023-02-24T16:22:57.225Z,35.50
2023-02-24T16:25:26.924Z,29.90
2023-02-24T16:27:58.478Z,30.10
2023-02-24T16:30:30.604Z,33.40
2023-02-24T16:33:01.030Z,33.10
2023-02-24T16:35:29.454Z,45.50
2023-02-24T16:37:57.621Z,47.80
2023-02-24T16:40:33.816Z,34.90
2023-02-24T16:43:01.953Z,33.90
2023-02-24T16:45:31.738Z,29.20
2023-02-24T16:48:02.567Z,33.80
2023-02-24T16:50:40.195Z,33.20
2023-02-24T16:53:12.627Z,43.20
2023-02-24T16:55:41.149Z,35.00
2023-02-24T16:58:11.257Z,33.70
2023-02-24T17:00:41.466Z,29.20
2023-02-24T17:03:25.118Z,26.80
2023-02-24T17:05:54.181Z,26.90
2023-02-24T17:08:23.201Z,31.00
2023-02-24T17:10:52.632Z,32.20
2023-02-24T17:13:21.883Z,35.50
2023-02-24T17:15:57.349Z,36.70
2023-02-24T17:18:26.993Z,33.10
2023-02-24T17:20:55.540Z,31.00
2023-02-24T17:23:24.043Z,33.30
2023-02-24T17:25:55.655Z,29.50
2023-02-24T17:28:24.369Z,37.10
2023-02-24T17:30:52.630Z,33.20
2023-02-24T17:33:21.133Z,41.90
2023-02-24T17:35:49.410Z,37.50
2023-02-24T17:38:21.563Z,33.70
2023-02-24T17:40:49.747Z,39.40
2023-02-24T17:43:18.111Z,36.90
2023-02-24T17:45:47.505Z,36.10
2023-02-24T17:48:16.512Z,40.00
2023-02-24T17:50:45.739Z,29.90
2023-02-24T17:53:13.988Z,30.60
2023-02-24T17:55:55.740Z,32.20
2023-02-24T17:58:30.095Z,35.10
2023-02-24T18:00:58.309Z,37.70
2023-02-24T18:03:26.709Z,41.10
2023-02-24T18:06:03.405Z,63.00
2023-02-24T18:08:33.639Z,139.00
2023-02-24T18:11:02.567Z,84.00
2023-02-24T18:13:31.675Z,72.10
2023-02-24T18:16:00.506Z,60.70
2023-02-24T18:18:30.476Z,48.80
2023-02-24T18:21:02.963Z,49.50
2023-02-24T18:23:32.517Z,64.60
2023-02-24T18:26:02.723Z,59.80
2023-02-24T18:28:32.028Z,55.20
2023-02-24T18:31:01.380Z,63.10
2023-02-24T18:33:29.645Z,75.80
2023-02-24T18:35:59.635Z,61.50
2023-02-24T18:38:28.785Z,50.80
2023-02-24T18:41:05.495Z,43.80
2023-02-24T18:43:35.596Z,43.60
2023-02-24T18:46:06.603Z,44.50
2023-02-24T18:48:35.744Z,47.60
2023-02-24T18:51:04.420Z,42.30
2023-02-24T18:53:36.964Z,43.70
2023-02-24T18:56:20.252Z,37.40
2023-02-24T18:58:55.074Z,45.20
2023-02-24T19:01:32.113Z,42.50
2023-02-24T19:04:04.573Z,38.00
2023-02-24T19:06:33.641Z,42.20
2023-02-24T19:09:11.417Z,48.50
2023-02-24T19:11:40.894Z,42.80
2023-02-24T19:14:11.976Z,43.60
2023-02-24T19:16:41.411Z,42.90
2023-02-24T19:19:13.862Z,37.50
2023-02-24T19:21:45.591Z,43.50
2023-02-24T19:24:14.481Z,38.70
2023-02-24T19:26:44.542Z,41.40
2023-02-24T19:29:12.577Z,37.20
2023-02-24T19:31:40.915Z,34.50
2023-02-24T19:34:12.408Z,36.90
2023-02-24T19:36:41.376Z,37.80
2023-02-24T19:39:12.526Z,36.60
2023-02-24T19:41:41.362Z,34.40
2023-02-24T19:44:10.452Z,42.50
2023-02-24T19:46:39.197Z,38.80
2023-02-24T19:49:07.287Z,35.90
2023-02-24T19:51:35.848Z,40.30
2023-02-24T19:54:06.342Z,43.00
2023-02-24T19:56:36.714Z,39.50
2023-02-24T19:59:08.146Z,45.00
2023-02-24T20:01:36.579Z,38.80
2023-02-24T20:04:05.666Z,44.60
2023-02-24T20:06:36.451Z,42.30
2023-02-24T20:09:09.645Z,44.90
2023-02-24T20:11:39.483Z,43.10
2023-02-24T20:14:09.081Z,44.90
2023-02-24T20:16:39.155Z,50.90
2023-02-24T20:19:09.275Z,42.90
2023-02-24T20:21:38.825Z,49.40
2023-02-24T20:24:12.547Z,51.00
2023-02-24T20:26:43.554Z,53.00
2023-02-24T20:29:12.465Z,57.70
2023-02-24T20:31:41.427Z,53.20
2023-02-24T20:34:10.806Z,52.70
2023-02-24T20:36:40.910Z,51.50
2023-02-24T20:39:12.522Z,52.40
2023-02-24T20:41:42.141Z,44.90
2023-02-24T20:44:11.948Z,52.60
2023-02-24T20:46:40.215Z,49.40
2023-02-24T20:49:11.095Z,52.00
2023-02-24T20:51:39.299Z,58.70
2023-02-24T20:54:09.350Z,49.20
2023-02-24T20:56:39.935Z,49.20
2023-02-24T20:59:13.955Z,44.70
2023-02-24T21:01:46.802Z,44.60
2023-02-24T21:04:17.963Z,42.70
2023-02-24T21:06:48.142Z,39.40
2023-02-24T21:09:16.470Z,48.00
2023-02-24T21:11:44.915Z,47.20
2023-02-24T21:14:15.704Z,44.60
2023-02-24T21:16:46.476Z,43.90
2023-02-24T21:19:15.212Z,46.50
2023-02-24T21:21:43.683Z,45.60
2023-02-24T21:24:11.800Z,47.60
2023-02-24T21:26:39.935Z,40.90
2023-02-24T21:29:08.308Z,49.90
2023-02-24T21:31:36.413Z,43.10
2023-02-24T21:34:04.494Z,44.60
2023-02-24T21:36:32.938Z,41.10
2023-02-24T21:39:01.104Z,41.20
2023-02-24T21:41:29.439Z,47.30
2023-02-24T21:44:00.788Z,46.70
2023-02-24T21:46:29.359Z,44.00
2023-02-24T21:48:58.898Z,42.70
2023-02-24T21:51:29.452Z,42.20
2023-02-24T21:53:58.230Z,43.60
2023-02-24T21:56:30.438Z,44.20
2023-02-24T21:58:58.521Z,42.30
2023-02-24T22:01:45.542Z,43.10
2023-02-24T22:04:16.619Z,38.70
2023-02-24T22:06:45.304Z,51.00
2023-02-24T22:09:20.933Z,46.90
2023-02-24T22:11:50.122Z,36.60
2023-02-24T22:14:18.852Z,41.90
2023-02-24T22:16:47.319Z,44.40
2023-02-24T22:19:15.457Z,39.40
2023-02-24T22:21:43.620Z,45.10
2023-02-24T22:24:16.715Z,51.30
2023-02-24T22:26:46.084Z,49.00
2023-02-24T22:29:14.226Z,48.30
2023-02-24T22:31:44.173Z,49.40
2023-02-24T22:34:14.655Z,48.90
2023-02-24T22:36:42.965Z,45.20
2023-02-24T22:39:11.056Z,52.30
2023-02-24T22:41:39.201Z,50.20
2023-02-24T22:44:07.319Z,49.00
2023-02-24T22:46:37.674Z,40.60
2023-02-24T22:49:06.507Z,54.20
2023-02-24T22:51:35.346Z,49.60
2023-02-24T22:54:04.674Z,43.50
2023-02-24T22:56:33.200Z,49.60
2023-02-24T22:59:01.445Z,45.00
2023-02-24T23:01:36.266Z,48.50
2023-02-24T23:04:12.978Z,51.40
2023-02-24T23:06:41.828Z,43.20
2023-02-24T23:09:10.756Z,46.10
2023-02-24T23:11:41.436Z,47.40
2023-02-24T23:14:13.814Z,45.50
2023-02-24T23:16:44.754Z,44.90
2023-02-24T23:19:18.985Z,48.90
2023-02-24T23:21:50.995Z,52.20
2023-02-24T23:24:21.102Z,44.20
2023-02-24T23:26:54.178Z,39.90
2023-02-24T23:29:24.040Z,45.90
2023-02-24T23:31:53.310Z,41.70
2023-02-24T23:34:21.709Z,46.50
2023-02-24T23:36:49.998Z,48.40
2023-02-24T23:39:23.195Z,40.40
2023-02-24T23:41:57.562Z,38.20
2023-02-24T23:44:26.091Z,43.10
2023-02-24T23:46:55.034Z,47.90
2023-02-24T23:49:23.198Z,35.70
2023-02-24T23:51:51.489Z,39.30
2023-02-24T23:54:20.529Z,36.00
2023-02-24T23:56:49.228Z,40.20
2023-02-24T23:59:17.237Z,42.60
